Time;durP1;ratioP1;P1;durP2;ratioP2;P2;SDS_P1;SDS_P2;PMS_P1;PMS_P2;Temp;Humidity;BMP_temperature;BMP_pressure;BME280_temperature;BME280_humidity;BME280_pressure;Samples;Min_cycle;Max_cycle;Signal;HPM_P1;HPM_P2
2021/06/06 00:01:00;;;;;;;;;;;11.90;99.90;;;;;;5092433;28;19995;-70
2021/06/06 00:03:31;;;;;;;;;;;12.00;99.90;;;;;;5092523;28;19908;-69
2021/06/06 00:06:01;;;;;;;;;;;12.00;99.90;;;;;;5092549;28;19916;-68
2021/06/06 00:08:28;;;;;;;;;;;12.10;99.90;;;;;;5092415;28;19908;-68
2021/06/06 00:10:57;;;;;;;;;;;12.20;99.90;;;;;;5090934;28;19924;-69
2021/06/06 00:13:24;;;;;;;;;;;12.20;99.90;;;;;;5092031;28;19954;-68
2021/06/06 00:15:51;;;;;;;;;;;12.30;99.90;;;;;;5092367;28;19952;-67
2021/06/06 00:18:17;;;;;;;;;;;12.30;99.90;;;;;;5092413;28;20336;-68
2021/06/06 00:20:44;;;;;;;;;;;12.40;99.90;;;;;;5092116;28;19922;-69
2021/06/06 00:23:11;;;;;;;;;;;12.40;99.90;;;;;;5092184;28;19908;-68
2021/06/06 00:25:38;;;;;;;;;;;12.60;99.80;;;;;;5092261;28;20466;-68
2021/06/06 00:28:05;;;;;;;;;;;12.70;99.60;;;;;;5091814;28;19912;-68
2021/06/06 00:30:33;;;;;;;;;;;12.80;99.50;;;;;;5092028;28;19908;-69
2021/06/06 00:33:00;;;;;;;;;;;12.80;99.40;;;;;;5092165;28;20394;-68
2021/06/06 00:35:27;;;;;;;;;;;13.00;99.30;;;;;;5092122;28;19943;-69
2021/06/06 00:37:54;;;;;;;;;;;13.10;98.70;;;;;;5091996;28;19919;-68
2021/06/06 00:40:23;;;;;;;;;;;13.10;99.30;;;;;;5091776;28;20001;-69
2021/06/06 00:42:50;;;;;;;;;;;13.20;99.40;;;;;;5091913;28;19954;-70
2021/06/06 00:45:18;;;;;;;;;;;13.30;99.20;;;;;;5091935;28;20282;-70
2021/06/06 00:47:45;;;;;;;;;;;13.40;98.60;;;;;;5092022;28;19998;-69
2021/06/06 00:50:14;;;;;;;;;;;13.40;98.70;;;;;;5092095;28;19923;-69
2021/06/06 00:52:42;;;;;;;;;;;13.50;98.10;;;;;;5092174;28;19915;-69
2021/06/06 00:55:10;;;;;;;;;;;13.50;98.00;;;;;;5092071;28;20522;-68
2021/06/06 00:57:37;;;;;;;;;;;13.60;98.10;;;;;;5092266;28;19916;-69
2021/06/06 01:00:06;;;;;;;;;;;13.70;98.20;;;;;;5094451;28;19935;-70
2021/06/06 01:02:33;;;;;;;;;;;13.90;97.20;;;;;;5096761;28;19909;-70
2021/06/06 01:05:00;;;;;;;;;;;14.10;97.30;;;;;;5074714;28;20323;-68
2021/06/06 01:07:26;;;;;;;;;;;14.30;96.70;;;;;;5076376;28;19915;-69
2021/06/06 01:09:53;;;;;;;;;;;14.40;96.30;;;;;;5075744;28;19946;-69
2021/06/06 01:12:19;;;;;;;;;;;14.60;96.80;;;;;;5076283;28;19916;-69
2021/06/06 01:15:01;;;;;;;;;;;14.80;96.30;;;;;;5075794;28;19930;-68
2021/06/06 01:17:37;;;;;;;;;;;15.10;95.80;;;;;;5075719;28;19912;-69
2021/06/06 01:20:12;;;;;;;;;;;15.20;95.60;;;;;;5075907;28;19912;-67
2021/06/06 01:22:48;;;;;;;;;;;15.30;95.10;;;;;;5075831;28;20351;-67
2021/06/06 01:25:19;;;;;;;;;;;15.20;95.00;;;;;;5075712;28;20003;-67
2021/06/06 01:27:57;;;;;;;;;;;15.10;95.50;;;;;;5075835;28;19912;-67
2021/06/06 01:30:30;;;;;;;;;;;15.00;95.40;;;;;;5075512;28;19919;-67
2021/06/06 01:33:02;;;;;;;;;;;15.00;95.30;;;;;;5075385;28;20058;-68
2021/06/06 01:35:31;;;;;;;;;;;14.90;95.30;;;;;;5075684;28;20008;-67
2021/06/06 01:38:03;;;;;;;;;;;14.80;95.40;;;;;;5075498;28;19947;-67
2021/06/06 01:40:32;;;;;;;;;;;14.80;95.40;;;;;;5075966;28;19909;-69
2021/06/06 01:43:02;;;;;;;;;;;14.80;95.30;;;;;;5075358;28;19912;-68
2021/06/06 01:45:33;;;;;;;;;;;14.80;95.10;;;;;;5075398;28;19931;-67
2021/06/06 01:48:07;;;;;;;;;;;14.90;94.00;;;;;;5075289;28;20377;-67
2021/06/06 01:50:36;;;;;;;;;;;14.90;94.60;;;;;;5075334;28;19912;-67
2021/06/06 01:53:04;;;;;;;;;;;14.90;95.00;;;;;;5075179;28;19912;-67
2021/06/06 01:55:32;;;;;;;;;;;15.00;94.50;;;;;;5075295;28;19909;-68
2021/06/06 01:58:03;;;;;;;;;;;15.00;94.70;;;;;;5075241;28;19908;-68
2021/06/06 02:00:46;;;;;;;;;;;15.00;94.70;;;;;;5075066;28;20377;-67
2021/06/06 02:03:12;;;;;;;;;;;14.90;94.80;;;;;;5075139;28;19912;-68
2021/06/06 02:05:40;;;;;;;;;;;14.90;94.80;;;;;;5074953;28;19977;-67
2021/06/06 02:08:09;;;;;;;;;;;14.90;94.40;;;;;;5075166;28;19915;-67
2021/06/06 02:11:05;;;;;;;;;;;14.90;94.50;;;;;;5074036;28;19909;-68
2021/06/06 02:13:43;;;;;;;;;;;15.00;94.10;;;;;;5070167;28;19908;-67
2021/06/06 02:16:13;;;;;;;;;;;15.10;94.10;;;;;;5074898;28;19908;-68
2021/06/06 02:18:40;;;;;;;;;;;15.10;94.20;;;;;;5074731;28;20299;-68
2021/06/06 02:21:07;;;;;;;;;;;15.10;94.10;;;;;;5074559;28;19962;-68
2021/06/06 02:23:36;;;;;;;;;;;15.20;94.00;;;;;;5074715;28;19918;-68
2021/06/06 02:26:06;;;;;;;;;;;15.20;94.20;;;;;;5074618;28;20325;-68
2021/06/06 02:28:33;;;;;;;;;;;15.30;94.10;;;;;;5074469;28;19958;-68
2021/06/06 02:31:22;;;;;;;;;;;15.30;93.60;;;;;;5074327;28;20356;-68
2021/06/06 02:34:04;;;;;;;;;;;15.40;94.00;;;;;;5071762;28;19909;-69
2021/06/06 02:36:32;;;;;;;;;;;15.40;93.50;;;;;;5074465;28;19909;-67
2021/06/06 02:39:15;;;;;;;;;;;15.50;93.40;;;;;;5074535;28;19915;-67
2021/06/06 02:41:45;;;;;;;;;;;15.50;93.50;;;;;;5074408;28;19912;-68
2021/06/06 02:44:17;;;;;;;;;;;15.50;93.60;;;;;;5074233;28;20393;-68
2021/06/06 02:46:44;;;;;;;;;;;15.50;93.40;;;;;;5074120;28;19923;-68
2021/06/06 02:49:17;;;;;;;;;;;15.40;93.50;;;;;;5074107;28;19951;-68
2021/06/06 02:52:00;;;;;;;;;;;15.40;93.90;;;;;;5073880;28;20260;-69
2021/06/06 02:54:33;;;;;;;;;;;15.30;93.90;;;;;;5074130;28;19912;-67
2021/06/06 02:57:06;;;;;;;;;;;15.30;94.20;;;;;;5073912;28;20397;-68
2021/06/06 03:00:05;;;;;;;;;;;15.30;94.10;;;;;;5074151;28;19965;-68
2021/06/06 03:02:43;;;;;;;;;;;15.30;94.20;;;;;;5069686;28;20023;-68
2021/06/06 03:05:14;;;;;;;;;;;15.30;94.10;;;;;;5072397;28;19916;-67
2021/06/06 03:07:52;;;;;;;;;;;15.40;94.20;;;;;;5073701;28;19912;-68
2021/06/06 03:10:21;;;;;;;;;;;15.60;93.60;;;;;;5073937;28;20282;-68
2021/06/06 03:12:49;;;;;;;;;;;15.60;93.60;;;;;;5073506;28;19947;-69
2021/06/06 03:15:17;;;;;;;;;;;15.50;93.50;;;;;;5073565;28;19957;-68
2021/06/06 03:17:47;;;;;;;;;;;15.60;93.60;;;;;;5073652;28;19919;-68
2021/06/06 03:20:16;;;;;;;;;;;15.60;93.30;;;;;;5073707;28;19913;-68
2021/06/06 03:22:44;;;;;;;;;;;15.70;93.00;;;;;;5073479;28;19909;-68
2021/06/06 03:25:16;;;;;;;;;;;15.70;93.30;;;;;;5073166;28;19916;-69
2021/06/06 03:27:44;;;;;;;;;;;15.70;93.60;;;;;;5073503;28;19912;-68
2021/06/06 03:30:13;;;;;;;;;;;15.70;93.60;;;;;;5073359;28;19909;-68
2021/06/06 03:32:41;;;;;;;;;;;15.70;93.50;;;;;;5073402;28;20363;-68
2021/06/06 03:35:09;;;;;;;;;;;15.70;93.30;;;;;;5073471;28;19908;-69
2021/06/06 03:37:36;;;;;;;;;;;15.80;93.60;;;;;;5073211;28;19908;-69
2021/06/06 03:40:04;;;;;;;;;;;15.70;93.60;;;;;;5073519;28;19944;-69
2021/06/06 03:42:31;;;;;;;;;;;15.80;93.70;;;;;;5073492;28;19909;-69
2021/06/06 03:44:58;;;;;;;;;;;15.90;93.80;;;;;;5072932;28;19920;-68
2021/06/06 03:47:25;;;;;;;;;;;16.00;93.20;;;;;;5073133;28;19909;-69
2021/06/06 03:49:51;;;;;;;;;;;15.90;93.40;;;;;;5073234;28;19915;-69
2021/06/06 03:52:18;;;;;;;;;;;15.90;93.40;;;;;;5073310;28;19974;-68
2021/06/06 03:54:44;;;;;;;;;;;15.80;93.30;;;;;;5073133;28;20373;-68
2021/06/06 03:57:11;;;;;;;;;;;15.60;93.60;;;;;;5073217;28;19963;-68
2021/06/06 03:59:38;;;;;;;;;;;15.70;94.00;;;;;;5073075;28;20050;-69
2021/06/06 04:02:05;;;;;;;;;;;15.70;94.00;;;;;;5073184;28;20013;-68
2021/06/06 04:04:32;;;;;;;;;;;15.80;93.90;;;;;;5072962;28;20394;-69
2021/06/06 04:06:58;;;;;;;;;;;15.80;93.90;;;;;;5072614;28;19909;-69
2021/06/06 04:09:25;;;;;;;;;;;16.10;93.50;;;;;;5072983;28;19909;-68
2021/06/06 04:11:52;;;;;;;;;;;16.20;93.30;;;;;;5073164;28;19908;-68
2021/06/06 04:14:19;;;;;;;;;;;16.20;93.40;;;;;;5073079;28;20003;-69
2021/06/06 04:16:45;;;;;;;;;;;16.20;93.20;;;;;;5072790;28;19916;-69
2021/06/06 04:19:12;;;;;;;;;;;16.30;93.10;;;;;;5073072;28;19912;-69
2021/06/06 04:21:39;;;;;;;;;;;16.30;93.10;;;;;;5072711;28;19915;-68
2021/06/06 04:24:06;;;;;;;;;;;16.40;93.40;;;;;;5072935;28;19909;-69
2021/06/06 04:26:32;;;;;;;;;;;16.40;93.40;;;;;;5072915;28;19913;-68
2021/06/06 04:28:59;;;;;;;;;;;16.30;93.60;;;;;;5072632;28;20327;-68
2021/06/06 04:31:26;;;;;;;;;;;16.20;93.60;;;;;;5072827;28;19943;-68
2021/06/06 04:33:53;;;;;;;;;;;16.10;93.40;;;;;;5072056;28;20290;-71
2021/06/06 04:36:20;;;;;;;;;;;16.20;94.00;;;;;;5076834;28;19931;-72
2021/06/06 04:38:47;;;;;;;;;;;16.20;93.10;;;;;;5076613;28;19977;-71
2021/06/06 04:41:15;;;;;;;;;;;16.20;93.50;;;;;;5076787;28;19958;-69
2021/06/06 04:43:42;;;;;;;;;;;16.10;93.80;;;;;;5076562;28;19909;-70
2021/06/06 04:46:09;;;;;;;;;;;16.20;94.60;;;;;;5076529;28;19916;-71
2021/06/06 04:48:39;;;;;;;;;;;16.20;93.80;;;;;;5076431;28;19913;-72
2021/06/06 04:51:10;;;;;;;;;;;16.00;94.10;;;;;;5076413;28;19954;-71
2021/06/06 04:53:37;;;;;;;;;;;16.00;94.40;;;;;;5076479;28;19931;-71
2021/06/06 04:56:04;;;;;;;;;;;16.00;93.70;;;;;;5076444;28;19916;-71
2021/06/06 04:58:32;;;;;;;;;;;16.00;94.40;;;;;;5076715;28;20039;-70
2021/06/06 05:00:59;;;;;;;;;;;16.10;94.20;;;;;;5076072;28;20267;-70
2021/06/06 05:03:26;;;;;;;;;;;16.20;94.10;;;;;;5085257;28;19908;-70
2021/06/06 05:05:52;;;;;;;;;;;16.30;93.60;;;;;;5076870;28;20268;-71
2021/06/06 05:08:21;;;;;;;;;;;16.40;93.50;;;;;;5075375;28;19908;-69
2021/06/06 05:10:48;;;;;;;;;;;16.50;93.50;;;;;;5075302;28;19954;-69
2021/06/06 05:13:16;;;;;;;;;;;16.50;93.60;;;;;;5075598;28;19908;-69
2021/06/06 05:15:43;;;;;;;;;;;16.50;94.00;;;;;;5075345;28;19954;-72
2021/06/06 05:18:11;;;;;;;;;;;16.60;93.90;;;;;;5075400;28;20260;-68
2021/06/06 05:20:42;;;;;;;;;;;16.50;93.40;;;;;;5075091;28;19915;-69
2021/06/06 05:23:10;;;;;;;;;;;16.50;93.20;;;;;;5104714;28;19915;-68
2021/06/06 05:25:37;;;;;;;;;;;16.40;93.20;;;;;;5116240;28;19916;-69
2021/06/06 05:28:06;;;;;;;;;;;16.40;94.40;;;;;;5116388;28;20254;-70
2021/06/06 05:30:33;;;;;;;;;;;16.40;95.30;;;;;;5116472;28;20315;-70
2021/06/06 05:33:00;;;;;;;;;;;16.30;94.80;;;;;;5116191;28;20354;-69
2021/06/06 05:35:28;;;;;;;;;;;16.20;95.50;;;;;;5116315;28;19919;-70
2021/06/06 05:37:55;;;;;;;;;;;16.20;95.80;;;;;;5116361;28;19947;-70
2021/06/06 05:40:23;;;;;;;;;;;16.10;96.10;;;;;;5116179;28;19908;-69
2021/06/06 05:42:50;;;;;;;;;;;16.00;96.30;;;;;;5116057;28;19915;-69
2021/06/06 05:45:17;;;;;;;;;;;15.90;97.00;;;;;;5114941;28;20385;-69
2021/06/06 05:47:44;;;;;;;;;;;15.90;96.80;;;;;;5115983;28;20390;-70
2021/06/06 05:50:11;;;;;;;;;;;15.80;97.10;;;;;;5115832;28;19957;-70
2021/06/06 05:52:38;;;;;;;;;;;15.80;98.00;;;;;;5115965;28;19908;-69
2021/06/06 05:55:06;;;;;;;;;;;15.80;97.80;;;;;;5115782;28;20381;-69
2021/06/06 05:57:33;;;;;;;;;;;15.70;97.80;;;;;;5116057;28;19908;-70
2021/06/06 06:00:00;;;;;;;;;;;15.60;98.40;;;;;;5116049;28;20292;-69
2021/06/06 06:02:26;;;;;;;;;;;15.50;98.60;;;;;;5115775;28;20007;-70
2021/06/06 06:04:53;;;;;;;;;;;15.40;99.50;;;;;;5115418;28;20002;-70
2021/06/06 06:07:19;;;;;;;;;;;15.40;99.00;;;;;;5115799;28;20352;-69
2021/06/06 06:09:46;;;;;;;;;;;15.40;99.30;;;;;;5115671;28;20320;-70
2021/06/06 06:12:13;;;;;;;;;;;15.40;99.10;;;;;;5115663;28;19911;-70
2021/06/06 06:14:39;;;;;;;;;;;15.30;99.50;;;;;;5115618;28;19955;-69
2021/06/06 06:17:06;;;;;;;;;;;15.30;99.60;;;;;;5115530;28;19908;-70
2021/06/06 06:19:33;;;;;;;;;;;15.20;99.70;;;;;;5115579;28;19998;-70
2021/06/06 06:21:59;;;;;;;;;;;15.10;99.90;;;;;;5115581;28;20342;-70
2021/06/06 06:24:27;;;;;;;;;;;15.10;99.90;;;;;;5115452;28;19916;-70
2021/06/06 06:26:55;;;;;;;;;;;15.10;99.90;;;;;;5115227;28;20377;-71
2021/06/06 06:29:22;;;;;;;;;;;15.10;99.90;;;;;;5114328;28;19911;-69
2021/06/06 06:31:50;;;;;;;;;;;15.10;99.90;;;;;;5115438;28;19908;-70
2021/06/06 06:34:17;;;;;;;;;;;15.00;99.90;;;;;;5115225;28;19952;-70
2021/06/06 06:36:46;;;;;;;;;;;14.90;99.90;;;;;;5113953;28;20018;-69
2021/06/06 06:39:13;;;;;;;;;;;14.90;99.90;;;;;;5115307;28;20008;-70
2021/06/06 06:41:40;;;;;;;;;;;14.80;99.90;;;;;;5115104;28;19916;-70
2021/06/06 06:44:07;;;;;;;;;;;14.70;99.90;;;;;;5114835;28;20023;-70
2021/06/06 06:46:33;;;;;;;;;;;14.60;99.90;;;;;;5115096;28;19916;-71
2021/06/06 06:49:00;;;;;;;;;;;14.60;99.90;;;;;;5114834;28;20430;-70
2021/06/06 06:51:27;;;;;;;;;;;14.50;99.90;;;;;;5114762;28;19908;-70
2021/06/06 06:53:54;;;;;;;;;;;14.40;99.90;;;;;;5114845;28;19912;-70
2021/06/06 06:56:23;;;;;;;;;;;14.30;99.90;;;;;;5114560;28;20285;-70
2021/06/06 06:58:50;;;;;;;;;;;14.20;99.90;;;;;;5114506;28;20420;-69
2021/06/06 07:01:17;;;;;;;;;;;14.20;99.90;;;;;;5113366;28;20421;-70
2021/06/06 07:03:43;;;;;;;;;;;14.20;99.90;;;;;;5114699;28;19998;-69
2021/06/06 07:06:10;;;;;;;;;;;14.20;99.90;;;;;;5114380;28;19916;-70
2021/06/06 07:08:39;;;;;;;;;;;14.10;99.90;;;;;;5114632;28;20239;-70
2021/06/06 07:11:07;;;;;;;;;;;14.10;99.90;;;;;;5114661;28;19948;-71
2021/06/06 07:13:34;;;;;;;;;;;14.20;99.90;;;;;;5115107;28;19911;-69
2021/06/06 07:16:01;;;;;;;;;;;14.10;99.90;;;;;;5115900;28;19908;-69
2021/06/06 07:18:28;;;;;;;;;;;14.10;99.90;;;;;;5114355;28;19908;-70
2021/06/06 07:20:57;;;;;;;;;;;14.10;99.90;;;;;;5114146;28;19942;-71
2021/06/06 07:23:24;;;;;;;;;;;14.10;99.90;;;;;;5114264;28;19954;-71
2021/06/06 07:25:51;;;;;;;;;;;14.00;99.90;;;;;;5114281;28;20469;-69
2021/06/06 07:28:22;;;;;;;;;;;14.00;99.90;;;;;;5114389;28;20396;-69
2021/06/06 07:30:50;;;;;;;;;;;14.00;99.90;;;;;;5114061;28;20380;-70
2021/06/06 07:33:24;;;;;;;;;;;14.00;99.90;;;;;;5114250;28;19908;-70
2021/06/06 07:35:52;;;;;;;;;;;13.90;99.90;;;;;;5114302;28;19965;-70
2021/06/06 07:38:19;;;;;;;;;;;13.90;99.90;;;;;;5114255;28;20060;-71
2021/06/06 07:40:47;;;;;;;;;;;13.90;99.90;;;;;;5113849;28;19911;-70
2021/06/06 07:43:14;;;;;;;;;;;13.80;99.90;;;;;;5095769;28;20306;-71
2021/06/06 07:45:41;;;;;;;;;;;13.80;99.90;;;;;;5113842;28;19919;-70
2021/06/06 07:48:08;;;;;;;;;;;13.80;99.90;;;;;;5113973;28;20284;-70
2021/06/06 07:50:39;;;;;;;;;;;13.80;99.90;;;;;;5113124;28;20158;-70
2021/06/06 07:53:05;;;;;;;;;;;13.80;99.90;;;;;;5113556;28;19943;-70
2021/06/06 07:55:32;;;;;;;;;;;13.80;99.90;;;;;;5113934;28;19912;-70
2021/06/06 07:57:59;;;;;;;;;;;13.80;99.90;;;;;;5113913;28;19934;-70
2021/06/06 08:00:31;;;;;;;;;;;13.70;99.90;;;;;;5113825;28;19908;-70
2021/06/06 08:02:58;;;;;;;;;;;13.70;99.90;;;;;;5113621;28;19939;-68
2021/06/06 08:05:25;;;;;;;;;;;13.70;99.90;;;;;;5113579;28;19920;-69
2021/06/06 08:07:51;;;;;;;;;;;13.60;99.90;;;;;;5113476;28;19915;-69
2021/06/06 08:10:19;;;;;;;;;;;13.60;99.90;;;;;;5113069;28;20259;-68
2021/06/06 08:12:46;;;;;;;;;;;13.60;99.90;;;;;;5113268;28;20322;-69
2021/06/06 08:15:13;;;;;;;;;;;13.60;99.90;;;;;;5112232;28;19931;-69
2021/06/06 08:17:40;;;;;;;;;;;13.50;99.90;;;;;;5113397;28;20354;-69
2021/06/06 08:20:08;;;;;;;;;;;13.50;99.90;;;;;;5113341;28;20278;-68
2021/06/06 08:22:35;;;;;;;;;;;13.50;99.90;;;;;;5113542;28;20397;-69
2021/06/06 08:25:04;;;;;;;;;;;13.50;99.90;;;;;;5082323;28;20260;-68
2021/06/06 08:27:30;;;;;;;;;;;13.50;99.90;;;;;;5072841;28;19909;-68
2021/06/06 08:29:57;;;;;;;;;;;13.50;99.90;;;;;;5072926;28;19909;-68
2021/06/06 08:32:24;;;;;;;;;;;13.50;99.90;;;;;;5072421;28;19912;-68
2021/06/06 08:34:50;;;;;;;;;;;13.50;99.90;;;;;;5071275;28;19962;-69
2021/06/06 08:37:17;;;;;;;;;;;13.40;99.90;;;;;;5072865;28;19915;-67
2021/06/06 08:39:43;;;;;;;;;;;13.40;99.90;;;;;;5073979;28;19966;-68
2021/06/06 08:42:19;;;;;;;;;;;13.40;99.90;;;;;;5073742;28;19966;-70
2021/06/06 08:44:54;;;;;;;;;;;13.40;99.90;;;;;;5073038;28;19982;-68
2021/06/06 08:47:25;;;;;;;;;;;13.30;99.90;;;;;;5072308;28;19958;-68
2021/06/06 08:49:56;;;;;;;;;;;13.30;99.90;;;;;;5072716;28;19981;-68
2021/06/06 08:52:40;;;;;;;;;;;13.30;99.90;;;;;;5072706;28;19969;-69
2021/06/06 08:55:25;;;;;;;;;;;13.30;99.90;;;;;;5072649;28;19912;-68
2021/06/06 08:57:55;;;;;;;;;;;13.30;99.90;;;;;;5072783;28;19999;-67
2021/06/06 09:00:27;;;;;;;;;;;13.30;99.90;;;;;;5072869;28;19912;-69
2021/06/06 09:03:02;;;;;;;;;;;13.30;99.90;;;;;;5070768;28;19955;-68
2021/06/06 09:05:32;;;;;;;;;;;13.30;99.90;;;;;;5072575;28;19923;-68
2021/06/06 09:08:01;;;;;;;;;;;13.30;99.90;;;;;;5072529;28;20355;-68
2021/06/06 09:10:30;;;;;;;;;;;13.20;99.90;;;;;;5104733;28;20355;-68
2021/06/06 09:12:57;;;;;;;;;;;13.20;99.90;;;;;;5072436;28;19966;-67
2021/06/06 09:15:27;;;;;;;;;;;13.20;99.90;;;;;;5072577;28;20014;-68
2021/06/06 09:17:56;;;;;;;;;;;13.20;99.90;;;;;;5071734;28;19959;-69
2021/06/06 09:20:23;;;;;;;;;;;13.20;99.90;;;;;;5073614;28;20008;-68
2021/06/06 09:22:51;;;;;;;;;;;13.20;99.90;;;;;;5075773;28;19962;-68
2021/06/06 09:25:33;;;;;;;;;;;13.20;99.90;;;;;;5075941;28;19921;-68
2021/06/06 09:28:02;;;;;;;;;;;13.10;99.90;;;;;;5076041;28;19909;-68
2021/06/06 09:30:29;;;;;;;;;;;13.20;99.90;;;;;;5076089;28;19908;-68
2021/06/06 09:33:10;;;;;;;;;;;13.20;99.90;;;;;;5075573;28;20263;-68
2021/06/06 09:35:49;;;;;;;;;;;13.20;99.90;;;;;;5076011;28;19908;-68
2021/06/06 09:38:21;;;;;;;;;;;13.20;99.90;;;;;;5076015;28;19947;-68
2021/06/06 09:40:49;;;;;;;;;;;13.20;99.90;;;;;;5075565;28;19909;-69
2021/06/06 09:43:24;;;;;;;;;;;13.20;99.90;;;;;;5075648;28;19915;-69
2021/06/06 09:46:04;;;;;;;;;;;13.30;99.90;;;;;;5075798;28;19925;-68
2021/06/06 09:48:32;;;;;;;;;;;13.30;99.90;;;;;;5075439;28;19908;-69
2021/06/06 09:51:07;;;;;;;;;;;13.20;99.90;;;;;;5074980;28;19924;-71
2021/06/06 09:53:36;;;;;;;;;;;13.10;99.90;;;;;;5075819;28;19912;-69
2021/06/06 09:56:25;;;;;;;;;;;13.10;99.90;;;;;;5075591;28;20282;-69
2021/06/06 09:58:53;;;;;;;;;;;13.10;99.90;;;;;;5074057;28;19908;-70
2021/06/06 10:01:25;;;;;;;;;;;13.00;99.90;;;;;;5075441;28;19919;-68
2021/06/06 10:03:54;;;;;;;;;;;13.00;99.90;;;;;;5075211;28;19912;-69
2021/06/06 10:06:21;;;;;;;;;;;13.00;99.90;;;;;;5074503;28;19923;-68
2021/06/06 10:08:57;;;;;;;;;;;13.00;99.90;;;;;;5075416;28;19916;-69
2021/06/06 10:11:28;;;;;;;;;;;12.90;99.90;;;;;;5074551;28;20314;-69
2021/06/06 10:13:59;;;;;;;;;;;12.90;99.90;;;;;;5076314;28;19951;-70
2021/06/06 10:16:36;;;;;;;;;;;13.00;99.90;;;;;;5075193;28;20002;-69
2021/06/06 10:19:26;;;;;;;;;;;13.00;99.90;;;;;;5074733;28;19996;-70
2021/06/06 10:21:53;;;;;;;;;;;13.10;99.90;;;;;;5074390;28;19920;-68
2021/06/06 10:24:29;;;;;;;;;;;13.10;99.90;;;;;;5074776;28;19915;-69
2021/06/06 10:27:00;;;;;;;;;;;13.10;99.90;;;;;;5074738;28;19913;-70
2021/06/06 10:29:34;;;;;;;;;;;13.20;99.90;;;;;;5074846;28;19915;-69
2021/06/06 10:32:07;;;;;;;;;;;13.30;99.90;;;;;;5074126;28;19935;-68
2021/06/06 10:34:40;;;;;;;;;;;13.30;99.90;;;;;;5074136;28;19917;-70
2021/06/06 10:37:08;;;;;;;;;;;13.30;99.90;;;;;;5074325;28;19908;-71
2021/06/06 10:39:39;;;;;;;;;;;13.30;99.90;;;;;;5074590;28;19908;-69
2021/06/06 10:42:22;;;;;;;;;;;13.30;99.90;;;;;;5074415;28;20381;-70
2021/06/06 10:45:08;;;;;;;;;;;13.30;99.90;;;;;;5074117;28;19927;-69
2021/06/06 10:47:42;;;;;;;;;;;13.30;99.90;;;;;;5074441;28;19909;-69
2021/06/06 10:50:15;;;;;;;;;;;13.30;99.90;;;;;;5073799;28;20431;-69
2021/06/06 10:52:41;;;;;;;;;;;13.20;99.90;;;;;;5074299;28;19938;-69
2021/06/06 10:55:15;;;;;;;;;;;13.20;99.90;;;;;;5074162;28;20003;-69
2021/06/06 10:57:52;;;;;;;;;;;13.10;99.90;;;;;;5074397;28;19923;-69
2021/06/06 11:00:37;;;;;;;;;;;13.10;99.90;;;;;;5074363;28;19915;-68
2021/06/06 11:03:06;;;;;;;;;;;13.10;99.90;;;;;;5072664;28;19999;-69
2021/06/06 11:05:38;;;;;;;;;;;13.00;99.90;;;;;;5073280;28;19917;-69
2021/06/06 11:08:23;;;;;;;;;;;13.00;99.90;;;;;;5074015;28;19999;-69
2021/06/06 11:10:50;;;;;;;;;;;12.90;99.90;;;;;;5073786;28;19908;-68
2021/06/06 11:13:34;;;;;;;;;;;12.90;99.90;;;;;;5073985;28;19947;-69
2021/06/06 11:16:07;;;;;;;;;;;12.80;99.90;;;;;;5073816;28;20327;-70
2021/06/06 11:18:50;;;;;;;;;;;12.70;99.90;;;;;;5073511;28;19951;-69
2021/06/06 11:21:28;;;;;;;;;;;12.70;99.90;;;;;;5073318;28;19908;-69
2021/06/06 11:23:59;;;;;;;;;;;12.60;99.90;;;;;;5073671;28;20335;-68
2021/06/06 11:26:32;;;;;;;;;;;12.60;99.90;;;;;;5073512;28;19923;-69
2021/06/06 11:29:19;;;;;;;;;;;12.60;99.90;;;;;;5106049;28;20367;-68
2021/06/06 11:32:03;;;;;;;;;;;12.60;99.90;;;;;;5073613;28;20383;-69
2021/06/06 11:34:34;;;;;;;;;;;12.50;99.90;;;;;;5072896;28;19959;-69
2021/06/06 11:37:12;;;;;;;;;;;12.60;99.90;;;;;;5073192;28;19908;-68
2021/06/06 11:39:41;;;;;;;;;;;12.50;99.90;;;;;;5074099;28;19908;-68
2021/06/06 11:42:23;;;;;;;;;;;12.60;99.90;;;;;;5081525;28;19948;-69
2021/06/06 11:44:52;;;;;;;;;;;12.60;99.90;;;;;;5079892;28;20003;-70
2021/06/06 11:47:18;;;;;;;;;;;12.50;99.90;;;;;;5077152;28;19909;-70
2021/06/06 11:50:01;;;;;;;;;;;12.50;99.90;;;;;;5077757;28;19908;-70
2021/06/06 11:52:28;;;;;;;;;;;12.40;99.90;;;;;;5081255;28;19955;-70
2021/06/06 11:54:59;;;;;;;;;;;12.50;99.90;;;;;;5088186;28;19915;-69
2021/06/06 11:57:35;;;;;;;;;;;12.40;99.90;;;;;;5089050;28;20336;-69
2021/06/06 12:00:02;;;;;;;;;;;12.40;99.90;;;;;;5088664;28;20602;-70
2021/06/06 12:02:31;;;;;;;;;;;12.50;99.90;;;;;;5088902;28;19992;-69
2021/06/06 12:05:09;;;;;;;;;;;12.50;99.90;;;;;;5088520;28;19912;-69
2021/06/06 12:07:36;;;;;;;;;;;12.60;99.90;;;;;;5089653;28;19909;-69
2021/06/06 12:10:03;;;;;;;;;;;12.70;99.90;;;;;;5095127;28;19931;-70
2021/06/06 12:12:31;;;;;;;;;;;12.70;99.90;;;;;;5105843;28;19909;-70
2021/06/06 12:15:09;;;;;;;;;;;12.80;99.90;;;;;;5073013;28;19912;-69
2021/06/06 12:17:37;;;;;;;;;;;12.90;99.90;;;;;;5073121;28;19908;-69
2021/06/06 12:20:07;;;;;;;;;;;12.90;99.90;;;;;;5072928;28;20053;-68
2021/06/06 12:22:38;;;;;;;;;;;12.90;99.90;;;;;;5073073;28;19919;-68
2021/06/06 12:25:14;;;;;;;;;;;12.80;99.90;;;;;;5072890;28;19918;-69
2021/06/06 12:27:43;;;;;;;;;;;12.80;99.90;;;;;;5073342;28;20271;-69
2021/06/06 12:30:24;;;;;;;;;;;12.80;99.90;;;;;;5072903;28;19913;-69
2021/06/06 12:33:10;;;;;;;;;;;12.80;99.90;;;;;;5073599;28;19908;-69
2021/06/06 12:35:43;;;;;;;;;;;12.90;99.90;;;;;;5072797;28;20317;-68
2021/06/06 12:38:11;;;;;;;;;;;12.90;99.90;;;;;;5073018;28;19908;-69
2021/06/06 12:40:39;;;;;;;;;;;12.90;99.90;;;;;;5105456;28;19966;-69
2021/06/06 12:43:07;;;;;;;;;;;12.80;99.90;;;;;;5072592;28;19908;-69
2021/06/06 12:45:34;;;;;;;;;;;12.80;99.90;;;;;;5072486;28;20004;-68
2021/06/06 12:48:06;;;;;;;;;;;12.80;99.90;;;;;;5072814;28;19908;-68
2021/06/06 12:50:33;;;;;;;;;;;12.80;99.90;;;;;;5072799;28;19916;-69
2021/06/06 12:53:02;;;;;;;;;;;12.70;99.90;;;;;;5072520;28;19908;-69
2021/06/06 12:55:28;;;;;;;;;;;12.70;99.90;;;;;;5074310;28;19913;-69
2021/06/06 12:57:57;;;;;;;;;;;12.70;99.90;;;;;;5076635;28;19908;-70
2021/06/06 13:00:23;;;;;;;;;;;12.70;99.90;;;;;;5109067;28;19912;-69
2021/06/06 13:02:51;;;;;;;;;;;12.70;99.90;;;;;;5076253;28;19951;-69
2021/06/06 13:05:41;;;;;;;;;;;12.60;99.90;;;;;;5076498;28;19955;-70
2021/06/06 13:08:34;;;;;;;;;;;12.60;99.90;;;;;;5076793;28;19916;-69
2021/06/06 13:11:19;;;;;;;;;;;12.60;99.90;;;;;;5077008;28;20264;-69
2021/06/06 13:13:47;;;;;;;;;;;12.60;99.90;;;;;;5077504;28;20422;-70
2021/06/06 13:16:32;;;;;;;;;;;12.60;99.90;;;;;;5076356;28;19951;-70
2021/06/06 13:19:01;;;;;;;;;;;12.70;99.90;;;;;;5075681;28;19940;-70
2021/06/06 13:21:29;;;;;;;;;;;12.80;99.90;;;;;;5076277;28;19909;-68
2021/06/06 13:24:05;;;;;;;;;;;12.80;99.90;;;;;;5076191;28;20434;-68
2021/06/06 13:26:36;;;;;;;;;;;12.80;99.90;;;;;;5076199;28;20007;-68
2021/06/06 13:29:04;;;;;;;;;;;12.80;99.90;;;;;;5075863;28;19908;-68
2021/06/06 13:31:37;;;;;;;;;;;12.80;99.90;;;;;;5075893;28;20343;-68
2021/06/06 13:34:06;;;;;;;;;;;12.80;99.90;;;;;;5075946;28;19959;-68
2021/06/06 13:36:34;;;;;;;;;;;12.80;99.90;;;;;;5075929;28;19909;-68
2021/06/06 13:39:12;;;;;;;;;;;12.70;99.90;;;;;;5075115;28;19948;-68
2021/06/06 13:41:38;;;;;;;;;;;12.70;99.90;;;;;;5075932;28;20231;-69
2021/06/06 13:44:05;;;;;;;;;;;12.80;99.90;;;;;;5075522;28;19920;-68
2021/06/06 13:46:34;;;;;;;;;;;12.80;99.90;;;;;;5075917;28;20012;-68
2021/06/06 13:49:07;;;;;;;;;;;12.80;99.90;;;;;;5075380;28;19908;-68
2021/06/06 13:51:35;;;;;;;;;;;12.80;99.90;;;;;;5075500;28;19917;-69
2021/06/06 13:54:03;;;;;;;;;;;12.80;99.90;;;;;;5075547;28;19913;-68
2021/06/06 13:56:29;;;;;;;;;;;12.80;99.90;;;;;;5075490;28;19909;-68
2021/06/06 13:58:57;;;;;;;;;;;12.80;99.90;;;;;;5075307;28;20418;-68
2021/06/06 14:01:23;;;;;;;;;;;12.90;99.90;;;;;;5074115;28;19913;-68
2021/06/06 14:03:50;;;;;;;;;;;12.90;99.90;;;;;;5075262;28;20383;-68
2021/06/06 14:06:17;;;;;;;;;;;12.90;99.90;;;;;;5074333;28;19917;-68
2021/06/06 14:08:45;;;;;;;;;;;12.80;99.90;;;;;;5074945;28;19920;-68
2021/06/06 14:11:17;;;;;;;;;;;12.80;99.90;;;;;;5076322;28;19955;-67
2021/06/06 14:13:44;;;;;;;;;;;12.70;99.90;;;;;;5075413;28;19912;-68
2021/06/06 14:16:12;;;;;;;;;;;12.80;99.90;;;;;;5090788;28;19908;-68
2021/06/06 14:18:40;;;;;;;;;;;12.80;99.90;;;;;;5075128;28;19952;-68
2021/06/06 14:21:07;;;;;;;;;;;12.70;99.90;;;;;;5075064;28;19916;-68
2021/06/06 14:23:36;;;;;;;;;;;12.60;99.90;;;;;;5075066;28;19923;-68
2021/06/06 14:26:03;;;;;;;;;;;12.50;99.90;;;;;;5074911;28;20409;-68
2021/06/06 14:28:30;;;;;;;;;;;12.50;99.90;;;;;;5074949;28;20007;-68
2021/06/06 14:30:57;;;;;;;;;;;12.40;99.90;;;;;;5074704;28;19909;-67
2021/06/06 14:33:25;;;;;;;;;;;12.40;99.90;;;;;;5073381;28;19912;-68